createdAt,value
2023-04-17T00:01:43.712Z,25.60
2023-04-17T00:04:11.032Z,25.55
2023-04-17T00:06:38.740Z,26.85
2023-04-17T00:09:05.601Z,25.85
2023-04-17T00:11:32.532Z,25.63
2023-04-17T00:13:59.252Z,25.98
2023-04-17T00:16:26.036Z,25.30
2023-04-17T00:18:53.857Z,26.15
2023-04-17T00:21:20.631Z,27.35
2023-04-17T00:23:48.717Z,26.85
2023-04-17T00:26:16.749Z,27.25
2023-04-17T00:28:44.017Z,26.85
2023-04-17T00:31:11.805Z,26.48
2023-04-17T00:33:38.481Z,27.95
2023-04-17T00:36:05.618Z,26.88
2023-04-17T00:38:32.256Z,29.15
2023-04-17T00:40:58.926Z,25.92
2023-04-17T00:43:25.668Z,25.88
2023-04-17T00:45:53.575Z,25.75
2023-04-17T00:48:21.664Z,26.55
2023-04-17T00:50:49.557Z,26.42
2023-04-17T00:53:17.940Z,25.70
2023-04-17T00:55:47.339Z,25.85
2023-04-17T00:58:15.690Z,26.23
2023-04-17T01:00:44.841Z,24.40
2023-04-17T01:03:12.480Z,25.02
2023-04-17T01:05:48.071Z,26.08
2023-04-17T01:08:15.970Z,26.00
2023-04-17T01:10:42.882Z,24.65
2023-04-17T01:13:09.611Z,24.30
2023-04-17T01:15:37.019Z,24.05
2023-04-17T01:18:03.917Z,25.40
2023-04-17T01:20:31.491Z,24.27
2023-04-17T01:23:01.704Z,24.67
2023-04-17T01:25:28.822Z,24.75
2023-04-17T01:27:55.669Z,25.02
2023-04-17T01:30:22.859Z,25.70
2023-04-17T01:32:49.583Z,24.70
2023-04-17T01:35:16.327Z,25.20
2023-04-17T01:37:44.371Z,25.25
2023-04-17T01:40:11.316Z,24.10
2023-04-17T01:42:39.157Z,25.77
2023-04-17T01:45:07.475Z,26.15
2023-04-17T01:47:34.210Z,26.30
2023-04-17T01:50:03.436Z,24.95
2023-04-17T01:52:30.149Z,26.50
2023-04-17T01:54:56.833Z,25.55
2023-04-17T01:57:23.751Z,27.17
2023-04-17T01:59:50.477Z,26.88
2023-04-17T02:02:17.208Z,25.63
2023-04-17T02:04:44.053Z,24.02
2023-04-17T02:07:10.887Z,24.65
2023-04-17T02:09:37.566Z,26.42
2023-04-17T02:12:04.448Z,24.02
2023-04-17T02:14:31.174Z,25.55
2023-04-17T02:16:57.856Z,25.95
2023-04-17T02:19:24.600Z,25.65
2023-04-17T02:21:51.298Z,26.92
2023-04-17T02:24:19.304Z,27.85
2023-04-17T02:26:49.619Z,26.67
2023-04-17T02:29:20.799Z,25.95
2023-04-17T02:31:48.859Z,27.67
2023-04-17T02:34:19.533Z,27.58
2023-04-17T02:36:50.886Z,26.75
2023-04-17T02:39:17.577Z,25.75
2023-04-17T02:41:44.281Z,25.92
2023-04-17T02:44:10.990Z,26.60
2023-04-17T02:46:38.275Z,25.67
2023-04-17T02:49:05.012Z,27.58
2023-04-17T02:51:31.756Z,26.48
2023-04-17T02:53:58.393Z,27.17
2023-04-17T02:56:25.072Z,26.58
2023-04-17T02:58:51.779Z,27.42
2023-04-17T03:01:18.517Z,28.02
2023-04-17T03:03:46.862Z,28.33
2023-04-17T03:06:13.689Z,27.25
2023-04-17T03:08:41.854Z,26.95
2023-04-17T03:11:08.635Z,29.27
2023-04-17T03:13:36.882Z,28.17
2023-04-17T03:16:05.956Z,28.33
2023-04-17T03:18:37.402Z,28.20
2023-04-17T03:21:04.052Z,28.52
2023-04-17T03:23:32.037Z,28.55
2023-04-17T03:25:59.075Z,27.60
2023-04-17T03:28:25.764Z,28.75
2023-04-17T03:30:52.456Z,28.52
2023-04-17T03:33:19.121Z,29.38
2023-04-17T03:35:47.215Z,29.95
2023-04-17T03:38:13.965Z,29.38
2023-04-17T03:40:41.018Z,29.75
2023-04-17T03:43:08.910Z,29.85
2023-04-17T03:45:36.070Z,29.13
2023-04-17T03:48:05.252Z,31.08
2023-04-17T03:50:37.810Z,30.65
2023-04-17T03:53:04.503Z,31.83
2023-04-17T03:55:31.216Z,31.58
2023-04-17T03:57:57.940Z,32.05
2023-04-17T04:00:24.615Z,33.38
2023-04-17T04:02:51.495Z,32.95
2023-04-17T04:05:19.505Z,33.53
2023-04-17T04:07:46.276Z,33.78
2023-04-17T04:10:13.907Z,32.47
2023-04-17T04:12:42.252Z,33.78
2023-04-17T04:15:09.456Z,34.13
2023-04-17T04:17:37.235Z,34.95
2023-04-17T04:20:06.067Z,34.42
2023-04-17T04:22:34.737Z,35.08
2023-04-17T04:25:04.513Z,36.35
2023-04-17T04:27:34.844Z,36.42
2023-04-17T04:30:04.743Z,38.63
2023-04-17T04:32:39.158Z,36.75
2023-04-17T04:35:07.959Z,37.00
2023-04-17T04:37:34.664Z,37.55
2023-04-17T04:40:01.473Z,38.38
2023-04-17T04:42:28.664Z,37.47
2023-04-17T04:44:55.529Z,39.55
2023-04-17T04:47:22.327Z,39.08
2023-04-17T04:49:49.094Z,40.13
2023-04-17T04:52:15.797Z,39.50
2023-04-17T04:54:42.507Z,40.35
2023-04-17T04:57:09.182Z,39.78
2023-04-17T04:59:37.915Z,38.42
2023-04-17T05:02:06.876Z,41.15
2023-04-17T05:04:33.704Z,39.50
2023-04-17T05:07:01.709Z,37.88
2023-04-17T05:09:28.458Z,38.60
2023-04-17T05:11:58.480Z,41.28
2023-04-17T05:14:25.165Z,40.67
2023-04-17T05:16:51.904Z,40.20
2023-04-17T05:19:18.770Z,41.58
2023-04-17T05:21:45.514Z,42.25
2023-04-17T05:24:12.136Z,43.85
2023-04-17T05:26:38.882Z,42.72
2023-04-17T05:29:05.597Z,45.03
2023-04-17T05:31:32.300Z,46.33
2023-04-17T05:33:59.018Z,47.15
2023-04-17T05:36:25.823Z,46.70
2023-04-17T05:38:52.495Z,46.78
2023-04-17T05:41:20.723Z,51.03
2023-04-17T05:43:47.422Z,49.53
2023-04-17T05:46:15.436Z,51.78
2023-04-17T05:48:42.690Z,49.30
2023-04-17T05:51:12.166Z,50.88
2023-04-17T05:53:38.866Z,51.40
2023-04-17T05:56:05.881Z,54.20
2023-04-17T05:58:32.689Z,52.63
2023-04-17T06:00:59.587Z,53.17
2023-04-17T06:03:26.461Z,53.10
2023-04-17T06:05:53.458Z,50.83
2023-04-17T06:08:20.346Z,52.03
2023-04-17T06:10:47.099Z,53.97
2023-04-17T06:13:13.795Z,54.88
2023-04-17T06:15:41.812Z,51.60
2023-04-17T06:18:08.471Z,50.00
2023-04-17T06:20:38.687Z,51.15
2023-04-17T06:23:09.100Z,51.45
2023-04-17T06:25:56.840Z,50.10
2023-04-17T06:28:23.844Z,51.30
2023-04-17T06:30:50.708Z,52.97
2023-04-17T06:33:18.729Z,53.08
2023-04-17T06:35:45.499Z,51.25
2023-04-17T06:38:12.263Z,50.15
2023-04-17T06:40:39.010Z,46.78
2023-04-17T06:43:05.842Z,45.55
2023-04-17T06:45:33.424Z,45.55
2023-04-17T06:48:03.165Z,45.17
2023-04-17T06:50:30.016Z,48.28
2023-04-17T06:52:59.155Z,45.90
2023-04-17T06:55:27.123Z,46.63
2023-04-17T06:57:53.904Z,46.28
2023-04-17T07:00:21.301Z,47.42
2023-04-17T07:02:48.270Z,46.33
2023-04-17T07:05:15.115Z,45.13
2023-04-17T07:07:41.845Z,45.10
2023-04-17T07:10:08.691Z,44.25
2023-04-17T07:12:35.474Z,43.25
2023-04-17T07:15:02.214Z,40.72
2023-04-17T07:17:28.951Z,39.70
2023-04-17T07:19:58.384Z,40.13
2023-04-17T07:22:29.534Z,39.50
2023-04-17T07:25:05.841Z,39.97
2023-04-17T07:27:35.883Z,39.30
2023-04-17T07:30:02.655Z,38.30
2023-04-17T07:32:29.337Z,40.10
2023-04-17T07:34:56.136Z,38.83
2023-04-17T07:37:22.859Z,37.58
2023-04-17T07:39:50.027Z,36.88
2023-04-17T07:42:16.808Z,37.78
2023-04-17T07:44:43.489Z,36.38
2023-04-17T07:47:10.305Z,35.70
2023-04-17T07:49:37.330Z,36.35
2023-04-17T07:52:04.195Z,36.85
2023-04-17T07:54:31.296Z,38.83
2023-04-17T07:56:59.728Z,35.83
2023-04-17T07:59:27.345Z,36.38
2023-04-17T08:01:54.139Z,36.28
2023-04-17T08:04:21.218Z,35.75
2023-04-17T08:06:48.359Z,35.15
2023-04-17T08:09:15.145Z,37.03
2023-04-17T08:11:55.551Z,38.28
2023-04-17T08:14:24.270Z,38.83
2023-04-17T08:16:51.204Z,35.25
2023-04-17T08:19:17.980Z,32.10
2023-04-17T08:21:47.109Z,30.77
2023-04-17T08:24:13.947Z,32.88
2023-04-17T08:26:41.908Z,30.00
2023-04-17T08:29:09.907Z,27.98
2023-04-17T08:31:37.788Z,28.45
2023-04-17T08:34:13.646Z,29.83
2023-04-17T08:36:43.174Z,30.52
2023-04-17T08:39:11.246Z,29.67
2023-04-17T08:41:51.962Z,28.73
2023-04-17T08:44:20.566Z,26.75
2023-04-17T08:46:47.593Z,27.73
2023-04-17T08:49:15.706Z,27.90
2023-04-17T08:51:43.044Z,28.98
2023-04-17T08:54:13.230Z,31.08
2023-04-17T08:56:45.173Z,31.00
2023-04-17T08:59:12.186Z,30.27
2023-04-17T09:01:39.363Z,29.67
2023-04-17T09:04:06.933Z,30.00
2023-04-17T09:06:50.498Z,27.98
2023-04-17T09:09:17.239Z,28.23
2023-04-17T09:11:43.999Z,28.55
2023-04-17T09:14:30.067Z,28.85
2023-04-17T09:16:57.102Z,29.63
2023-04-17T09:19:23.822Z,29.23
2023-04-17T09:21:50.551Z,26.13
2023-04-17T09:24:35.309Z,26.23
2023-04-17T09:27:25.298Z,24.30
2023-04-17T09:30:00.556Z,23.77
2023-04-17T09:32:30.290Z,23.85
2023-04-17T09:34:58.733Z,22.77
2023-04-17T09:37:49.445Z,21.00
2023-04-17T09:40:18.052Z,20.27
2023-04-17T09:43:06.126Z,20.63
2023-04-17T09:45:35.892Z,21.20
2023-04-17T09:48:12.836Z,19.98
2023-04-17T09:50:40.951Z,19.48
2023-04-17T09:53:08.269Z,18.55
2023-04-17T09:55:38.376Z,18.77
2023-04-17T09:58:08.430Z,18.40
2023-04-17T10:00:35.679Z,21.35
2023-04-17T10:03:02.537Z,19.55
2023-04-17T10:05:30.022Z,20.02
2023-04-17T10:07:56.997Z,18.73
2023-04-17T10:10:28.490Z,18.60
2023-04-17T10:12:58.307Z,18.58
2023-04-17T10:15:25.834Z,17.85
2023-04-17T10:17:53.938Z,18.40
2023-04-17T10:20:24.202Z,18.27
2023-04-17T10:22:54.611Z,17.40
2023-04-17T10:25:21.615Z,21.23
2023-04-17T10:27:50.686Z,18.98
2023-04-17T10:30:17.563Z,19.42
2023-04-17T10:33:13.434Z,19.45
2023-04-17T10:35:40.249Z,20.13
2023-04-17T10:38:08.057Z,18.92
2023-04-17T10:40:36.327Z,19.38
2023-04-17T10:43:09.993Z,18.92
2023-04-17T10:45:56.496Z,19.85
2023-04-17T10:48:34.971Z,18.25
2023-04-17T10:51:21.988Z,18.95
2023-04-17T10:53:50.766Z,19.15
2023-04-17T10:56:23.297Z,20.27
2023-04-17T10:59:08.803Z,19.13
2023-04-17T11:01:50.593Z,19.02
2023-04-17T11:04:25.497Z,18.15
2023-04-17T11:06:52.790Z,20.17
2023-04-17T11:09:27.401Z,19.88
2023-04-17T11:11:59.520Z,19.50
2023-04-17T11:14:27.796Z,19.65
2023-04-17T11:16:56.281Z,17.90
2023-04-17T11:19:28.086Z,17.80
2023-04-17T11:22:03.953Z,18.75
2023-04-17T11:24:33.980Z,17.90
2023-04-17T11:27:01.570Z,18.33
2023-04-17T11:29:41.187Z,17.90
2023-04-17T11:32:11.884Z,19.10
2023-04-17T11:34:41.370Z,17.95
2023-04-17T11:37:08.410Z,17.98
2023-04-17T11:39:38.556Z,17.98
2023-04-17T11:42:05.567Z,19.25
2023-04-17T11:44:32.410Z,18.85
2023-04-17T11:46:59.374Z,18.23
2023-04-17T11:49:31.554Z,17.85
2023-04-17T11:52:02.331Z,17.33
2023-04-17T11:54:31.114Z,16.50
2023-04-17T11:57:15.094Z,16.88
2023-04-17T11:59:42.741Z,15.93
2023-04-17T12:02:09.735Z,16.83
2023-04-17T12:04:37.866Z,16.77
2023-04-17T12:07:06.149Z,16.95
2023-04-17T12:09:34.052Z,17.50
2023-04-17T12:12:03.778Z,18.25
2023-04-17T12:14:31.018Z,18.77
2023-04-17T12:16:57.730Z,19.40
2023-04-17T12:19:24.416Z,19.13
2023-04-17T12:21:51.838Z,19.08
2023-04-17T12:24:18.607Z,18.17
2023-04-17T12:26:50.846Z,19.13
2023-04-17T12:29:24.066Z,18.60
2023-04-17T12:31:56.130Z,20.15
2023-04-17T12:34:22.869Z,18.92
2023-04-17T12:36:50.885Z,19.73
2023-04-17T12:39:17.613Z,20.25
2023-04-17T12:41:45.913Z,19.67
2023-04-17T12:44:12.814Z,19.33
2023-04-17T12:46:42.616Z,20.17
2023-04-17T12:49:13.158Z,19.75
2023-04-17T12:51:40.029Z,19.00
2023-04-17T12:54:06.726Z,19.50
2023-04-17T12:56:35.503Z,17.60
2023-04-17T12:59:03.049Z,17.17
2023-04-17T13:01:30.220Z,16.75
2023-04-17T13:03:57.378Z,18.63
2023-04-17T13:06:24.364Z,18.77
2023-04-17T13:08:51.122Z,19.67
2023-04-17T13:11:17.822Z,20.95
2023-04-17T13:13:44.504Z,21.95
2023-04-17T13:16:11.381Z,21.17
2023-04-17T13:18:38.794Z,22.23
2023-04-17T13:21:05.521Z,22.13
2023-04-17T13:23:33.682Z,22.63
2023-04-17T13:26:01.687Z,23.08
2023-04-17T13:28:28.807Z,23.13
2023-04-17T13:30:57.599Z,22.90
2023-04-17T13:33:24.368Z,23.98
2023-04-17T13:35:57.735Z,23.70
2023-04-17T13:38:32.582Z,24.73
2023-04-17T13:41:00.606Z,24.97
2023-04-17T13:43:27.357Z,33.97
2023-04-17T13:45:55.653Z,26.70
2023-04-17T13:48:22.490Z,27.88
2023-04-17T13:50:49.245Z,27.20
2023-04-17T13:53:16.046Z,29.45
2023-04-17T13:55:42.725Z,27.50
2023-04-17T13:58:09.525Z,28.95
2023-04-17T14:00:36.233Z,29.05
2023-04-17T14:03:04.805Z,29.73
2023-04-17T14:05:31.899Z,30.15
2023-04-17T14:07:58.952Z,32.03
2023-04-17T14:10:25.590Z,31.70
2023-04-17T14:12:52.440Z,33.70
2023-04-17T14:15:19.117Z,33.83
2023-04-17T14:17:46.097Z,35.38
2023-04-17T14:20:13.316Z,35.80
2023-04-17T14:22:40.185Z,38.00
2023-04-17T14:25:07.298Z,36.60
2023-04-17T14:27:34.244Z,36.10
2023-04-17T14:30:01.533Z,36.33
2023-04-17T14:32:28.564Z,39.60
2023-04-17T14:34:55.255Z,38.38
2023-04-17T14:37:22.065Z,36.15
2023-04-17T14:39:49.945Z,38.90
2023-04-17T14:42:20.350Z,40.63
2023-04-17T14:44:49.305Z,36.15
2023-04-17T14:47:18.830Z,35.28
2023-04-17T14:49:48.742Z,36.40
2023-04-17T14:52:15.455Z,38.85
2023-04-17T14:54:42.142Z,38.97
2023-04-17T14:57:08.930Z,36.72
2023-04-17T14:59:35.779Z,38.88
2023-04-17T15:02:02.566Z,42.97
2023-04-17T15:04:29.350Z,46.88
2023-04-17T15:06:56.056Z,41.75
2023-04-17T15:09:22.761Z,39.55
2023-04-17T15:11:50.498Z,42.03
2023-04-17T15:14:17.248Z,38.97
2023-04-17T15:16:45.002Z,38.00
2023-04-17T15:19:11.857Z,35.65
2023-04-17T15:21:43.495Z,34.10
2023-04-17T15:24:12.370Z,36.15
2023-04-17T15:26:45.002Z,37.15
2023-04-17T15:29:21.828Z,38.80
2023-04-17T15:31:49.781Z,37.85
2023-04-17T15:34:16.511Z,35.85
2023-04-17T15:36:43.182Z,36.95
2023-04-17T15:39:09.963Z,34.78
2023-04-17T15:41:40.174Z,35.38
2023-04-17T15:44:06.917Z,35.00
2023-04-17T15:46:33.879Z,32.75
2023-04-17T15:49:08.856Z,35.20
2023-04-17T15:51:36.237Z,35.40
2023-04-17T15:54:03.297Z,35.42
2023-04-17T15:56:30.052Z,37.92
2023-04-17T15:58:56.767Z,34.40
2023-04-17T16:01:23.972Z,33.75
2023-04-17T16:03:53.096Z,32.83
2023-04-17T16:06:22.917Z,32.22
2023-04-17T16:08:49.682Z,37.28
2023-04-17T16:11:16.400Z,35.80
2023-04-17T16:13:43.105Z,35.78
2023-04-17T16:16:09.887Z,33.75
2023-04-17T16:18:36.636Z,28.70
2023-04-17T16:21:03.459Z,28.13
2023-04-17T16:23:30.324Z,27.70
2023-04-17T16:25:57.119Z,25.63
2023-04-17T16:28:24.412Z,28.58
2023-04-17T16:30:51.545Z,25.17
2023-04-17T16:33:18.319Z,26.25
2023-04-17T16:35:46.562Z,25.05
2023-04-17T16:38:13.930Z,23.08
2023-04-17T16:40:45.109Z,24.52
2023-04-17T16:43:23.079Z,23.75
2023-04-17T16:45:51.124Z,24.38
2023-04-17T16:48:19.074Z,24.85
2023-04-17T16:50:47.917Z,24.80
2023-04-17T16:53:18.800Z,26.23
2023-04-17T16:55:47.957Z,27.90
2023-04-17T16:58:14.673Z,26.40
2023-04-17T17:00:41.401Z,24.55
2023-04-17T17:03:08.189Z,27.40
2023-04-17T17:05:34.995Z,28.08
2023-04-17T17:08:01.664Z,27.88
2023-04-17T17:10:28.398Z,27.27
2023-04-17T17:12:55.087Z,38.88
2023-04-17T17:15:21.872Z,29.65
2023-04-17T17:17:48.736Z,28.30
2023-04-17T17:20:15.581Z,29.60
2023-04-17T17:22:43.506Z,30.48
2023-04-17T17:25:10.312Z,31.85
2023-04-17T17:27:38.619Z,32.45
2023-04-17T17:30:07.438Z,31.83
2023-04-17T17:32:36.545Z,32.28
2023-04-17T17:35:05.393Z,31.80
2023-04-17T17:37:32.076Z,35.65
2023-04-17T17:39:58.781Z,36.85
2023-04-17T17:42:25.418Z,34.50
2023-04-17T17:44:52.161Z,33.90
2023-04-17T17:47:18.877Z,35.58
2023-04-17T17:49:45.563Z,35.20
2023-04-17T17:52:12.275Z,35.22
2023-04-17T17:54:39.202Z,35.97
2023-04-17T17:57:06.611Z,37.05
2023-04-17T17:59:34.486Z,37.00
2023-04-17T18:02:01.286Z,36.15
2023-04-17T18:04:30.672Z,36.25
2023-04-17T18:06:57.429Z,38.08
2023-04-17T18:09:24.126Z,35.00
2023-04-17T18:11:50.863Z,37.38
2023-04-17T18:14:17.498Z,41.70
2023-04-17T18:16:44.192Z,41.88
2023-04-17T18:19:10.950Z,41.25
2023-04-17T18:21:37.640Z,39.42
2023-04-17T18:24:04.852Z,38.35
2023-04-17T18:26:31.783Z,36.63
2023-04-17T18:28:58.538Z,38.40
2023-04-17T18:31:26.639Z,40.75
2023-04-17T18:33:53.848Z,38.55
2023-04-17T18:36:21.182Z,41.15
2023-04-17T18:38:47.866Z,39.85
2023-04-17T18:41:14.570Z,41.42
2023-04-17T18:43:41.271Z,38.13
2023-04-17T18:46:08.124Z,39.33
2023-04-17T18:48:34.983Z,40.58
2023-04-17T18:51:12.072Z,41.53
2023-04-17T18:53:38.746Z,41.97
2023-04-17T18:56:05.536Z,41.42
2023-04-17T18:58:32.687Z,41.90
2023-04-17T19:00:59.463Z,43.17
2023-04-17T19:03:26.290Z,42.13
2023-04-17T19:05:53.029Z,42.65
2023-04-17T19:08:21.012Z,45.33
2023-04-17T19:10:47.768Z,45.38
2023-04-17T19:13:14.542Z,45.85
2023-04-17T19:15:42.398Z,43.50
2023-04-17T19:18:11.249Z,42.45
2023-04-17T19:20:39.186Z,51.00
2023-04-17T19:23:05.866Z,45.13
2023-04-17T19:25:32.549Z,46.30
2023-04-17T19:27:59.245Z,42.15
2023-04-17T19:30:26.038Z,44.85
2023-04-17T19:32:52.754Z,41.42
2023-04-17T19:35:19.562Z,40.70
2023-04-17T19:37:46.285Z,43.90
2023-04-17T19:40:24.381Z,44.90
2023-04-17T19:42:52.109Z,42.97
2023-04-17T19:45:19.779Z,41.95
2023-04-17T19:47:46.872Z,41.15
2023-04-17T19:50:15.181Z,40.13
2023-04-17T19:52:41.879Z,39.50
2023-04-17T19:55:09.867Z,37.92
2023-04-17T19:57:37.868Z,38.33
2023-04-17T20:00:06.298Z,37.92
2023-04-17T20:02:36.842Z,36.75
2023-04-17T20:05:14.060Z,38.22
2023-04-17T20:07:42.006Z,35.55
2023-04-17T20:10:10.064Z,37.75
2023-04-17T20:12:38.861Z,39.17
2023-04-17T20:15:05.930Z,38.53
2023-04-17T20:17:32.677Z,38.45
2023-04-17T20:19:59.384Z,42.88
2023-04-17T20:22:26.114Z,37.40
2023-04-17T20:24:53.099Z,35.17
2023-04-17T20:27:20.989Z,34.95
2023-04-17T20:29:47.733Z,35.08
2023-04-17T20:32:17.102Z,34.33
2023-04-17T20:34:44.890Z,36.42
2023-04-17T20:37:13.719Z,34.10
2023-04-17T20:39:40.446Z,35.15
2023-04-17T20:42:07.133Z,34.30
2023-04-17T20:44:33.839Z,31.10
2023-04-17T20:47:00.594Z,33.83
2023-04-17T20:49:27.302Z,36.28
2023-04-17T20:51:54.038Z,32.33
2023-04-17T20:54:20.907Z,31.73
2023-04-17T20:56:47.867Z,32.83
2023-04-17T20:59:17.675Z,32.90
2023-04-17T21:01:47.071Z,33.65
2023-04-17T21:04:16.325Z,31.63
2023-04-17T21:06:43.262Z,30.50
2023-04-17T21:09:14.274Z,29.65
2023-04-17T21:11:45.395Z,30.35
2023-04-17T21:14:12.264Z,29.25
2023-04-17T21:16:39.191Z,31.85
2023-04-17T21:19:05.963Z,31.23
2023-04-17T21:21:33.162Z,30.50
2023-04-17T21:23:59.832Z,30.55
2023-04-17T21:26:26.542Z,30.30
2023-04-17T21:28:53.387Z,31.55
2023-04-17T21:31:21.377Z,29.98
2023-04-17T21:33:48.135Z,27.17
2023-04-17T21:36:15.988Z,27.13
2023-04-17T21:38:42.695Z,28.42
2023-04-17T21:41:09.676Z,28.17
2023-04-17T21:43:37.956Z,29.20
2023-04-17T21:46:10.161Z,28.77
2023-04-17T21:48:38.981Z,26.95
2023-04-17T21:51:05.978Z,27.05
2023-04-17T21:53:34.811Z,28.92
2023-04-17T21:56:01.726Z,28.55
2023-04-17T21:58:28.422Z,27.48
2023-04-17T22:00:55.343Z,28.52
2023-04-17T22:03:22.653Z,28.13
2023-04-17T22:05:49.709Z,29.50
2023-04-17T22:08:17.094Z,29.92
2023-04-17T22:10:43.799Z,28.30
2023-04-17T22:13:10.477Z,29.85
2023-04-17T22:15:37.209Z,29.67
2023-04-17T22:18:04.199Z,29.50
2023-04-17T22:20:30.892Z,28.95
2023-04-17T22:22:57.525Z,29.38
2023-04-17T22:25:24.387Z,28.35
2023-04-17T22:27:51.155Z,28.52
2023-04-17T22:30:17.795Z,28.02
2023-04-17T22:32:44.512Z,27.95
2023-04-17T22:35:11.171Z,27.60
2023-04-17T22:37:37.860Z,28.20
2023-04-17T22:40:04.975Z,28.10
2023-04-17T22:42:31.685Z,28.80
2023-04-17T22:44:58.496Z,28.73
2023-04-17T22:47:25.197Z,28.80
2023-04-17T22:49:51.989Z,27.92
2023-04-17T22:52:18.896Z,26.92
2023-04-17T22:54:45.717Z,28.13
2023-04-17T22:57:13.952Z,27.63
2023-04-17T22:59:41.041Z,27.55
2023-04-17T23:02:09.162Z,30.02
2023-04-17T23:04:39.649Z,28.73
2023-04-17T23:07:07.620Z,27.67
2023-04-17T23:09:38.471Z,28.63
2023-04-17T23:12:05.703Z,27.90
2023-04-17T23:14:32.766Z,26.90
2023-04-17T23:16:59.483Z,27.58
2023-04-17T23:19:26.148Z,29.00
2023-04-17T23:21:52.878Z,27.95
2023-04-17T23:24:19.598Z,30.05
2023-04-17T23:26:46.293Z,28.05
2023-04-17T23:29:13.698Z,27.88
2023-04-17T23:31:41.595Z,29.02
2023-04-17T23:34:09.762Z,28.23
2023-04-17T23:36:36.615Z,27.20
2023-04-17T23:39:04.698Z,28.23
2023-04-17T23:41:31.466Z,27.90
2023-04-17T23:44:08.594Z,29.80
2023-04-17T23:46:36.707Z,28.00
2023-04-17T23:49:04.027Z,27.27
2023-04-17T23:51:33.848Z,29.17
2023-04-17T23:54:00.681Z,28.45
2023-04-17T23:56:27.569Z,29.45
2023-04-17T23:58:54.249Z,28.58
